Time;durP1;ratioP1;P1;durP2;ratioP2;P2;SDS_P1;SDS_P2;PMS_P1;PMS_P2;Temp;Humidity;BMP_temperature;BMP_pressure;BME280_temperature;BME280_humidity;BME280_pressure;Samples;Min_cycle;Max_cycle;Signal;HPM_P1;HPM_P2
2023/09/10 00:01:39;;;;;;;12.88;10.18;;;14.70;99.90;;;;;;6316983;22;20023;-79
2023/09/10 00:04:07;;;;;;;12.85;9.88;;;14.70;99.90;;;;;;6308223;22;20014;-77
2023/09/10 00:06:37;;;;;;;14.13;10.32;;;14.80;99.90;;;;;;6308479;22;20080;-77
2023/09/10 00:09:09;;;;;;;14.60;10.13;;;14.70;99.90;;;;;;6306817;22;20093;-78
2023/09/10 00:11:44;;;;;;;12.85;10.35;;;14.70;99.90;;;;;;6307270;22;20022;-77
2023/09/10 00:14:21;;;;;;;17.58;10.32;;;14.50;99.90;;;;;;6308116;22;20031;-78
2023/09/10 00:16:53;;;;;;;13.82;10.35;;;14.50;99.90;;;;;;6307793;22;20018;-76
2023/09/10 00:19:27;;;;;;;15.73;10.05;;;14.50;99.90;;;;;;6287960;22;20028;-74
2023/09/10 00:21:58;;;;;;;13.93;10.98;;;14.40;99.90;;;;;;6324319;22;20362;-75
2023/09/10 00:24:33;;;;;;;15.32;10.73;;;14.40;99.90;;;;;;6332394;22;20091;-80
2023/09/10 00:27:05;;;;;;;14.50;10.98;;;14.40;99.90;;;;;;6319406;22;20020;-75
2023/09/10 00:29:34;;;;;;;14.57;10.20;;;14.40;99.90;;;;;;6335993;22;20470;-75
2023/09/10 00:32:19;;;;;;;13.23;10.82;;;14.30;99.90;;;;;;6316615;22;20074;-76
2023/09/10 00:34:56;;;;;;;17.02;11.02;;;14.30;99.90;;;;;;6307233;22;20027;-78
2023/09/10 00:37:42;;;;;;;11.93;10.48;;;14.30;99.90;;;;;;6306607;22;20014;-75
2023/09/10 00:40:33;;;;;;;12.57;10.35;;;14.30;99.90;;;;;;6328467;22;20112;-77
2023/09/10 00:43:19;;;;;;;;;;;;;;;;;;;;;
2023/09/10 00:46:01;;;;;;;22.08;16.38;;;14.30;99.90;;;;;;6308341;22;20076;-77
2023/09/10 00:48:46;;;;;;;13.68;10.93;;;14.30;99.90;;;;;;6307314;22;20019;-76
2023/09/10 00:51:31;;;;;;;13.98;10.32;;;14.30;99.90;;;;;;6310360;22;20031;-77
2023/09/10 00:54:18;;;;;;;13.95;10.25;;;14.30;99.90;;;;;;6307711;22;20022;-76
2023/09/10 00:56:52;;;;;;;15.18;10.30;;;14.20;99.90;;;;;;6294159;22;20627;-77
2023/09/10 00:59:25;;;;;;;14.75;11.10;;;14.10;99.90;;;;;;6340237;22;20015;-79
2023/09/10 01:02:04;;;;;;;13.13;9.95;;;14.00;99.90;;;;;;6306938;22;20022;-75
2023/09/10 01:04:50;;;;;;;13.77;10.65;;;14.00;99.90;;;;;;6290222;22;20022;-76
2023/09/10 01:07:42;;;;;;;14.35;10.90;;;14.00;99.90;;;;;;6319214;22;20027;-79
2023/09/10 01:10:18;;;;;;;14.48;10.80;;;13.90;99.90;;;;;;6306908;22;20072;-77
2023/09/10 01:13:04;;;;;;;13.95;10.05;;;14.00;99.90;;;;;;6308763;22;20248;-75
2023/09/10 01:15:49;;;;;;;12.95;10.07;;;13.90;99.90;;;;;;6306614;22;20471;-74
2023/09/10 01:18:39;;;;;;;13.68;10.90;;;13.90;99.90;;;;;;6292304;22;20019;-77
2023/09/10 01:21:38;;;;;;;15.10;10.93;;;13.80;99.90;;;;;;6306989;22;20029;-74
2023/09/10 01:24:21;;;;;;;14.95;10.68;;;13.80;99.90;;;;;;6296406;22;20082;-76
2023/09/10 01:26:59;;;;;;;13.55;10.32;;;13.80;99.90;;;;;;6305035;22;20025;-76
2023/09/10 01:29:29;;;;;;;13.27;10.45;;;13.80;99.90;;;;;;6341122;22;20029;-76
2023/09/10 01:32:04;;;;;;;12.73;10.48;;;13.90;99.90;;;;;;6292503;22;20019;-78
2023/09/10 01:34:35;;;;;;;18.08;11.20;;;13.90;99.90;;;;;;6308162;22;20041;-78
2023/09/10 01:37:27;;;;;;;12.80;10.10;;;13.80;99.90;;;;;;6289911;22;20458;-77
2023/09/10 01:40:06;;;;;;;14.20;10.18;;;13.80;99.90;;;;;;6314737;22;19999;-75
2023/09/10 01:42:58;;;;;;;;;;;13.70;99.90;;;;;;6363181;22;20037;-77
2023/09/10 01:45:29;;;;;;;12.55;10.95;;;13.70;99.90;;;;;;6336917;22;19947;-75
2023/09/10 01:48:16;;;;;;;12.88;10.25;;;13.70;99.90;;;;;;6332836;22;20098;-75
2023/09/10 01:50:47;;;;;;;14.50;10.82;;;13.70;99.90;;;;;;6309789;22;20442;-76
2023/09/10 01:53:27;;;;;;;14.02;10.65;;;13.80;99.90;;;;;;6309389;22;20030;-78
2023/09/10 01:59:03;;;;;;;15.63;11.40;;;13.70;99.90;;;;;;6305857;22;20030;-78
2023/09/10 02:01:42;;;;;;;14.40;11.30;;;13.50;99.90;;;;;;6293708;22;20027;-77
2023/09/10 02:08:00;;;;;;;13.40;10.10;;;13.30;99.90;;;;;;6291099;22;20022;-79
2023/09/10 02:10:45;;;;;;;14.68;10.43;;;13.40;99.90;;;;;;6286372;22;20031;-77
2023/09/10 02:13:17;;;;;;;16.42;11.13;;;13.40;99.90;;;;;;6306450;22;20060;-78
2023/09/10 02:15:46;;;;;;;16.65;11.48;;;13.40;99.90;;;;;;6308085;22;20124;-79
2023/09/10 02:18:23;;;;;;;14.48;10.32;;;13.40;99.90;;;;;;6306304;22;20018;-77
2023/09/10 02:21:05;;;;;;;14.85;10.55;;;13.40;99.90;;;;;;6306449;22;20015;-77
2023/09/10 02:23:33;;;;;;;15.52;11.13;;;13.40;99.90;;;;;;6306442;22;20085;-77
2023/09/10 02:26:03;;;;;;;14.77;10.88;;;13.40;99.90;;;;;;6306473;22;20029;-78
2023/09/10 02:28:39;;;;;;;13.82;10.75;;;13.50;99.90;;;;;;6306657;22;20072;-78
2023/09/10 02:31:25;;;;;;;12.55;9.75;;;13.50;99.90;;;;;;6342914;22;20033;-78
2023/09/10 02:34:01;;;;;;;13.88;10.32;;;13.40;99.90;;;;;;6306040;22;20011;-78
2023/09/10 02:36:32;;;;;;;13.82;10.43;;;13.40;99.90;;;;;;6306524;22;20045;-78
2023/09/10 02:39:04;;;;;;;15.88;10.85;;;13.40;99.90;;;;;;6306373;22;20050;-76
2023/09/10 02:41:36;;;;;;;16.20;10.80;;;13.30;99.90;;;;;;6306647;22;20494;-77
2023/09/10 02:44:17;;;;;;;13.43;11.00;;;13.30;99.90;;;;;;6307304;22;20019;-79
2023/09/10 02:47:01;;;;;;;14.63;10.23;;;13.20;99.90;;;;;;6289977;22;20365;-77
2023/09/10 02:49:49;;;;;;;14.20;11.18;;;13.30;99.90;;;;;;6290974;22;20034;-75
2023/09/10 02:52:34;;;;;;;13.90;10.30;;;13.30;99.90;;;;;;6299374;22;20033;-80
2023/09/10 02:55:10;;;;;;;14.32;10.77;;;13.20;99.90;;;;;;6306214;22;20451;-78
2023/09/10 02:57:48;;;;;;;12.93;11.10;;;13.20;99.90;;;;;;6307720;22;20080;-77
2023/09/10 03:00:25;;;;;;;13.13;10.25;;;13.20;99.90;;;;;;6291707;22;20044;-79
2023/09/10 03:03:13;;;;;;;;;;;;;;;;;;;;;
2023/09/10 03:05:52;;;;;;;14.77;11.45;;;13.10;99.90;;;;;;6294161;22;20036;-78
2023/09/10 03:08:38;;;;;;;;;;;;;;;;;;;;;
2023/09/10 03:11:20;;;;;;;;;;;;;;;;;;;;;
2023/09/10 03:16:55;;;;;;;18.73;10.40;;;13.10;99.90;;;;;;6350510;22;20423;-80
2023/09/10 03:19:29;;;;;;;14.48;10.60;;;13.10;99.90;;;;;;6306371;22;20044;-76
2023/09/10 03:21:58;;;;;;;;;;;13.10;99.90;;;;;;6307786;22;20101;-78
2023/09/10 03:24:28;;;;;;;13.10;10.15;;;13.10;99.90;;;;;;6323083;22;19925;-79
2023/09/10 03:27:00;;;;;;;16.05;11.15;;;13.10;99.90;;;;;;6335302;22;20023;-77
2023/09/10 03:29:32;;;;;;;13.98;10.77;;;13.00;99.90;;;;;;6332837;22;20093;-77
2023/09/10 03:32:00;;;;;;;15.63;11.55;;;13.00;99.90;;;;;;6332969;22;20022;-77
2023/09/10 03:34:31;;;;;;;15.32;12.07;;;13.00;99.90;;;;;;6336137;22;20040;-75
2023/09/10 03:37:03;;;;;;;19.00;15.18;;;13.10;99.90;;;;;;6342629;22;20718;-76
2023/09/10 03:39:36;;;;;;;16.60;14.90;;;12.90;99.90;;;;;;6342673;22;20018;-78
2023/09/10 03:42:11;;;;;;;17.27;14.27;;;12.80;99.90;;;;;;6333501;22;20019;-78
2023/09/10 03:44:38;;;;;;;17.00;13.05;;;12.90;99.90;;;;;;6332339;22;20019;-78
2023/09/10 03:47:06;;;;;;;14.40;12.25;;;12.90;99.90;;;;;;6330584;22;20421;-78
2023/09/10 03:49:40;;;;;;;13.27;10.68;;;12.80;99.90;;;;;;6331765;22;20083;-79
2023/09/10 03:52:26;;;;;;;14.18;9.95;;;12.80;99.90;;;;;;6335911;22;20014;-79
2023/09/10 03:54:53;;;;;;;14.73;10.60;;;12.80;99.90;;;;;;6337885;22;20033;-78
2023/09/10 03:57:27;;;;;;;14.52;11.15;;;12.80;99.90;;;;;;6296645;22;20410;-77
2023/09/10 04:00:01;;;;;;;15.85;11.10;;;12.70;99.90;;;;;;6339431;22;20023;-76
2023/09/10 04:02:43;;;;;;;12.27;11.00;;;12.80;99.90;;;;;;6381121;22;20466;-78
2023/09/10 04:05:13;;;;;;;17.55;10.27;;;12.70;99.90;;;;;;6337194;22;20014;-78
2023/09/10 04:07:43;;;;;;;14.40;10.55;;;12.70;99.90;;;;;;6337712;22;20063;-79
2023/09/10 04:10:13;;;;;;;14.30;11.35;;;12.80;99.90;;;;;;6321126;22;20010;-79
2023/09/10 04:12:42;;;;;;;16.98;11.50;;;12.70;99.90;;;;;;6338696;22;20434;-78
2023/09/10 04:15:11;;;;;;;16.50;11.27;;;12.70;99.90;;;;;;6338750;22;20029;-79
2023/09/10 04:17:44;;;;;;;15.75;11.23;;;12.70;99.90;;;;;;6339676;22;20015;-78
2023/09/10 04:20:26;;;;;;;14.13;11.05;;;12.70;99.90;;;;;;6372193;22;20392;-75
2023/09/10 04:23:02;;;;;;;17.05;11.35;;;12.70;99.90;;;;;;6339602;22;20095;-78
2023/09/10 04:25:33;;;;;;;17.17;11.70;;;12.80;99.90;;;;;;6320980;22;20038;-78
2023/09/10 04:28:01;;;;;;;15.90;11.65;;;12.80;99.90;;;;;;6321576;22;20022;-76
2023/09/10 04:30:35;;;;;;;15.75;11.32;;;12.70;99.90;;;;;;6340047;22;20018;-78
2023/09/10 04:33:17;;;;;;;15.88;12.02;;;12.70;99.90;;;;;;6338843;22;20022;-79
2023/09/10 04:36:02;;;;;;;18.77;11.93;;;12.70;99.90;;;;;;6341210;22;20072;-75
2023/09/10 04:38:57;;;;;;;14.73;11.35;;;12.70;99.90;;;;;;6341533;22;20033;-76
2023/09/10 04:41:52;;;;;;;16.67;11.15;;;12.80;99.90;;;;;;6323208;22;20029;-80
2023/09/10 04:44:43;;;;;;;13.60;10.70;;;12.70;99.90;;;;;;6372925;22;20079;-79
2023/09/10 04:47:31;;;;;;;;;;;;;;;;;;;;;
2023/09/10 04:50:11;;;;;;;14.13;10.52;;;13.00;99.90;;;;;;6340859;22;20076;-75
2023/09/10 04:52:55;;;;;;;14.57;10.13;;;13.00;99.90;;;;;;6319662;22;20023;-74
2023/09/10 04:55:34;;;;;;;13.27;10.48;;;13.10;99.90;;;;;;6319629;22;20045;-74
2023/09/10 04:58:02;;;;;;;17.83;10.90;;;13.20;99.90;;;;;;6331334;22;20000;-75
2023/09/10 05:00:46;;;;;;;13.80;10.35;;;13.20;99.90;;;;;;6330429;22;20053;-79
2023/09/10 05:03:27;;;;;;;15.07;10.25;;;13.30;99.90;;;;;;6305531;22;20023;-77
2023/09/10 05:06:02;;;;;;;14.50;11.38;;;13.20;99.90;;;;;;6304734;22;20019;-79
2023/09/10 05:08:53;;;;;;;13.20;10.60;;;13.30;99.90;;;;;;6304974;22;20015;-77
2023/09/10 05:11:30;;;;;;;17.60;10.32;;;13.40;99.90;;;;;;6290911;22;20019;-78
2023/09/10 05:14:09;;;;;;;14.80;10.45;;;13.50;99.90;;;;;;6265790;22;20041;-76
2023/09/10 05:17:06;;;;;;;12.88;9.85;;;13.60;99.90;;;;;;6302354;22;20039;-75
2023/09/10 05:19:51;;;;;;;17.75;10.35;;;13.60;99.90;;;;;;6301767;22;20042;-75
2023/09/10 05:22:43;;;;;;;14.35;10.07;;;13.70;99.90;;;;;;6301755;22;20020;-77
2023/09/10 05:28:38;;;;;;;14.00;9.82;;;13.80;99.90;;;;;;6301924;22;20022;-78
2023/09/10 05:31:26;;;;;;;14.73;9.85;;;14.00;99.90;;;;;;6287905;22;20026;-78
2023/09/10 05:34:13;;;;;;;10.60;9.38;;;14.20;99.90;;;;;;6300752;22;20019;-75
2023/09/10 05:37:16;;;;;;;14.95;9.93;;;14.40;99.90;;;;;;6303214;22;20027;-76
2023/09/10 05:40:13;;;;;;;14.65;10.05;;;14.60;99.90;;;;;;6229132;22;20027;-75
2023/09/10 05:42:50;;;;;;;14.13;10.05;;;14.80;99.90;;;;;;6225077;22;20015;-77
2023/09/10 05:45:30;;;;;;;15.68;10.60;;;15.00;99.90;;;;;;6233482;22;20408;-76
2023/09/10 05:48:12;;;;;;;11.50;9.60;;;15.20;99.90;;;;;;6288791;22;20411;-74
2023/09/10 05:51:22;;;;;;;11.13;9.10;;;15.40;99.90;;;;;;6297319;22;20015;-76
2023/09/10 05:54:43;;;;;;;11.88;9.40;;;15.70;99.90;;;;;;6317355;22;20023;-76
2023/09/10 06:04:39;;;;;;;11.75;8.80;;;16.70;99.90;;;;;;6199657;23;20031;-77
2023/09/10 06:08:37;;;;;;;;;;;;;;;;;;;;;
2023/09/10 06:15:17;;;;;;;14.30;9.38;;;17.50;99.90;;;;;;5995764;23;20046;-76
2023/09/10 06:20:45;;;;;;;13.75;9.05;;;17.90;99.90;;;;;;5981719;23;20051;-75
2023/09/10 06:23:13;;;;;;;13.50;9.10;;;18.10;99.90;;;;;;5965678;23;20027;-78
2023/09/10 06:25:55;;;;;;;13.90;9.23;;;18.30;99.90;;;;;;5984628;23;20027;-76
2023/09/10 06:28:24;;;;;;;13.75;8.65;;;18.50;99.90;;;;;;5972138;23;20081;-75
2023/09/10 06:30:52;;;;;;;11.00;8.50;;;18.60;99.90;;;;;;5979150;23;20019;-76
2023/09/10 06:33:22;;;;;;;11.63;8.63;;;18.70;99.90;;;;;;6016022;23;20022;-79
2023/09/10 06:35:54;;;;;;;14.27;9.73;;;18.90;99.90;;;;;;6215610;23;20020;-76
2023/09/10 06:38:22;;;;;;;14.27;8.98;;;19.10;99.90;;;;;;6213253;23;20042;-77
2023/09/10 06:40:52;;;;;;;12.48;8.68;;;19.30;99.90;;;;;;6214315;23;20040;-76
2023/09/10 06:43:22;;;;;;;20.52;12.60;;;19.40;99.90;;;;;;6216742;23;20059;-74
2023/09/10 06:46:06;;;;;;;18.58;11.93;;;19.60;99.90;;;;;;6304888;22;20189;-78
2023/09/10 06:48:38;;;;;;;14.30;10.43;;;19.80;99.90;;;;;;6310075;22;20065;-78
2023/09/10 06:51:06;;;;;;;15.60;11.57;;;19.90;99.90;;;;;;6305199;22;20023;-78
2023/09/10 06:53:34;;;;;;;13.77;9.93;;;20.00;99.90;;;;;;6355419;22;20099;-75
2023/09/10 06:56:04;;;;;;;13.85;9.80;;;20.20;99.90;;;;;;6340855;22;20105;-74
2023/09/10 06:58:35;;;;;;;13.10;10.48;;;20.40;99.90;;;;;;6374699;22;20080;-79
2023/09/10 07:01:18;;;;;;;17.75;9.48;;;20.60;99.90;;;;;;6323318;22;20433;-77
2023/09/10 07:03:53;;;;;;;11.73;9.00;;;20.80;99.90;;;;;;6339798;22;20041;-77
2023/09/10 07:06:32;;;;;;;16.33;10.27;;;20.90;99.90;;;;;;6340199;22;20018;-76
2023/09/10 07:11:54;;;;;;;17.95;11.32;;;21.30;99.90;;;;;;6320565;22;20477;-76
2023/09/10 07:14:27;;;;;;;17.40;12.75;;;21.40;99.90;;;;;;6339538;22;20023;-78
2023/09/10 07:17:02;;;;;;;15.45;10.02;;;21.60;99.90;;;;;;6372148;22;20026;-74
2023/09/10 07:20:20;;;;;;;16.95;10.15;;;21.80;99.90;;;;;;6343115;22;20038;-81
2023/09/10 07:23:19;;;;;;;15.45;10.15;;;21.90;99.90;;;;;;6309035;22;20020;-84
2023/09/10 08:05:37;;;;;;;16.02;9.90;;;23.80;99.90;;;;;;6039569;23;20030;-75
2023/09/10 08:08:04;;;;;;;;;;;23.90;99.90;;;;;;6212230;23;20009;-77
2023/09/10 08:10:32;;;;;;;16.10;12.13;;;24.00;99.90;;;;;;6213989;23;19923;-77
2023/09/10 08:13:00;;;;;;;15.95;9.80;;;24.10;99.90;;;;;;6213146;23;20024;-77
2023/09/10 08:15:35;;;;;;;18.73;12.55;;;24.20;99.90;;;;;;6228566;22;20022;-78
2023/09/10 08:18:02;;;;;;;13.95;11.43;;;24.20;99.90;;;;;;6306448;22;20030;-76
2023/09/10 08:20:30;;;;;;;15.88;12.35;;;24.30;99.90;;;;;;6314648;22;20018;-75
2023/09/10 08:22:59;;;;;;;16.35;10.60;;;24.40;99.90;;;;;;6314873;22;20474;-74
2023/09/10 08:25:26;;;;;;;13.43;9.40;;;24.50;99.90;;;;;;6313317;22;20046;-77
2023/09/10 08:27:56;;;;;;;13.68;10.38;;;24.60;99.90;;;;;;6304757;22;20022;-78
2023/09/10 08:30:24;;;;;;;12.60;10.48;;;24.60;99.90;;;;;;6305837;22;20391;-76
2023/09/10 08:32:51;;;;;;;14.43;10.13;;;24.60;99.90;;;;;;6301636;22;20019;-76
2023/09/10 08:35:20;;;;;;;19.70;9.65;;;24.70;99.90;;;;;;6316088;22;20038;-75
2023/09/10 08:37:47;;;;;;;13.95;10.75;;;24.80;99.90;;;;;;6324671;22;20031;-77
2023/09/10 08:40:17;;;;;;;17.25;9.90;;;24.90;99.90;;;;;;6318385;22;20103;-77
2023/09/10 08:42:55;;;;;;;12.57;9.20;;;25.00;99.90;;;;;;6330652;22;20075;-77
2023/09/10 08:45:24;;;;;;;13.32;11.07;;;25.00;99.90;;;;;;6311452;22;20043;-78
2023/09/10 08:47:54;;;;;;;15.50;9.57;;;25.10;99.90;;;;;;6308707;22;20391;-74
2023/09/10 08:50:24;;;;;;;13.93;11.23;;;25.10;99.90;;;;;;6312949;22;20049;-76
2023/09/10 08:52:53;;;;;;;15.70;10.90;;;25.10;99.90;;;;;;6336956;22;20081;-77
2023/09/10 08:55:23;;;;;;;13.70;9.93;;;25.40;99.90;;;;;;6378404;22;20105;-76
2023/09/10 08:57:53;;;;;;;16.60;9.63;;;25.50;99.90;;;;;;6377768;22;20018;-75
2023/09/10 09:00:22;;;;;;;13.55;10.10;;;25.60;99.90;;;;;;6340203;22;20026;-78
2023/09/10 09:02:50;;;;;;;10.13;8.05;;;25.70;99.90;;;;;;6338045;22;20018;-76
2023/09/10 09:05:17;;;;;;;12.20;8.38;;;25.80;99.90;;;;;;6372981;22;20415;-77
2023/09/10 09:07:50;;;;;;;11.45;8.13;;;26.00;99.90;;;;;;6338318;22;20037;-73
2023/09/10 09:10:25;;;;;;;16.63;9.60;;;26.10;99.90;;;;;;6382009;22;20045;-75
2023/09/10 09:12:56;;;;;;;13.40;8.10;;;26.10;99.90;;;;;;6377420;22;20089;-75
2023/09/10 09:15:25;;;;;;;16.05;13.20;;;26.20;99.90;;;;;;6367683;22;20025;-73
2023/09/10 09:17:57;;;;;;;14.55;9.07;;;26.20;99.90;;;;;;6337981;22;20038;-76
2023/09/10 09:20:25;;;;;;;12.10;8.95;;;26.30;99.90;;;;;;6372460;22;20046;-78
2023/09/10 09:22:57;;;;;;;12.52;9.52;;;26.40;99.90;;;;;;6374232;22;20037;-75
2023/09/10 09:25:30;;;;;;;17.55;10.15;;;26.50;99.90;;;;;;6379546;22;20082;-74
2023/09/10 09:27:59;;;;;;;12.95;7.78;;;26.50;99.90;;;;;;6378684;22;20020;-74
2023/09/10 09:30:26;;;;;;;12.00;8.13;;;26.60;99.90;;;;;;6379044;22;20006;-77
2023/09/10 09:32:54;;;;;;;10.77;6.82;;;26.60;99.90;;;;;;6372032;22;20022;-76
2023/09/10 09:35:22;;;;;;;9.90;6.55;;;26.70;99.90;;;;;;6376426;22;20022;-75
2023/09/10 09:37:49;;;;;;;11.20;9.63;;;27.00;99.90;;;;;;6376945;22;20026;-77
2023/09/10 09:40:21;;;;;;;13.73;8.85;;;27.10;99.90;;;;;;6381678;22;20518;-75
2023/09/10 09:42:54;;;;;;;8.43;6.50;;;27.10;99.90;;;;;;6378447;22;20018;-78
2023/09/10 09:45:23;;;;;;;8.82;7.10;;;27.30;99.90;;;;;;6338835;22;20026;-75
2023/09/10 09:47:51;;;;;;;8.13;6.40;;;27.30;99.90;;;;;;6367461;22;20087;-76
2023/09/10 09:50:28;;;;;;;8.52;5.53;;;27.40;99.90;;;;;;6370501;22;20026;-76
2023/09/10 09:52:57;;;;;;;7.32;4.70;;;27.40;99.90;;;;;;6374055;22;20080;-76
2023/09/10 09:55:27;;;;;;;8.25;5.68;;;27.50;99.90;;;;;;6341588;22;20454;-78
2023/09/10 09:57:58;;;;;;;9.85;4.97;;;27.50;99.90;;;;;;6338549;22;20032;-76
2023/09/10 10:00:26;;;;;;;9.35;7.03;;;27.30;99.90;;;;;;6366868;22;20049;-73
2023/09/10 10:02:54;;;;;;;6.53;5.25;;;27.50;99.90;;;;;;6338402;22;20026;-72
2023/09/10 10:05:28;;;;;;;7.22;4.20;;;27.60;99.90;;;;;;6372740;22;20023;-76
2023/09/10 10:07:55;;;;;;;9.10;6.28;;;27.70;99.90;;;;;;6372377;22;20018;-75
2023/09/10 10:10:23;;;;;;;10.80;7.63;;;27.80;99.90;;;;;;6379589;22;20030;-73
2023/09/10 10:12:53;;;;;;;8.27;5.30;;;27.80;99.90;;;;;;6384723;22;20018;-76
2023/09/10 10:15:23;;;;;;;7.25;4.85;;;27.90;99.90;;;;;;6372947;22;20025;-74
2023/09/10 10:17:53;;;;;;;7.75;4.85;;;27.90;99.90;;;;;;6388723;22;20045;-75
2023/09/10 10:20:25;;;;;;;9.75;6.63;;;28.00;99.90;;;;;;6352994;22;20057;-76
2023/09/10 10:26:10;;;;;;;7.88;4.90;;;27.90;99.90;;;;;;6245788;22;20019;-77
2023/09/10 10:29:28;;;;;;;8.60;5.50;;;28.10;99.90;;;;;;6319168;22;19998;-76
2023/09/10 10:32:30;;;;;;;6.53;5.63;;;28.10;99.90;;;;;;6377212;22;20043;-75
2023/09/10 10:35:02;;;;;;;6.57;4.97;;;28.20;99.90;;;;;;6344107;22;20030;-73
2023/09/10 10:37:43;;;;;;;10.43;5.10;;;28.10;99.90;;;;;;6342023;22;20025;-75
2023/09/10 10:40:19;;;;;;;8.15;4.97;;;28.20;99.90;;;;;;6344328;22;20312;-77
2023/09/10 10:42:51;;;;;;;10.43;5.85;;;28.20;99.90;;;;;;6371194;22;20022;-75
2023/09/10 10:45:33;;;;;;;7.45;4.93;;;28.20;99.90;;;;;;6367386;22;20097;-79
2023/09/10 10:48:20;;;;;;;5.85;4.75;;;28.20;99.90;;;;;;6369423;22;20032;-77
2023/09/10 10:50:49;;;;;;;7.60;6.27;;;28.10;99.90;;;;;;6372724;22;20018;-77
2023/09/10 10:53:20;;;;;;;8.38;5.18;;;28.10;99.90;;;;;;6338563;22;20318;-78
2023/09/10 10:56:05;;;;;;;;;;;;;;;;;;;;;
2023/09/10 10:58:42;;;;;;;7.18;5.13;;;28.10;99.90;;;;;;6333663;22;20026;-75
2023/09/10 11:01:13;;;;;;;6.45;4.60;;;28.10;99.90;;;;;;6314991;22;20015;-79
2023/09/10 11:03:47;;;;;;;6.55;4.63;;;28.20;99.90;;;;;;6294083;22;20053;-77
2023/09/10 11:06:15;;;;;;;7.25;4.65;;;28.30;99.90;;;;;;6314245;22;20034;-76
2023/09/10 11:08:46;;;;;;;9.57;5.38;;;28.30;99.90;;;;;;6306708;22;20019;-76
2023/09/10 11:11:50;;;;;;;13.57;7.13;;;28.40;99.90;;;;;;6307932;22;20017;-77
2023/09/10 11:14:17;;;;;;;6.75;4.78;;;28.40;99.90;;;;;;6300234;22;20039;-74
2023/09/10 11:16:45;;;;;;;5.88;4.53;;;28.40;99.90;;;;;;6306674;22;20018;-77
2023/09/10 11:19:47;;;;;;;8.00;4.90;;;28.30;99.90;;;;;;6344228;22;20045;-76
2023/09/10 11:22:16;;;;;;;6.07;4.45;;;28.20;99.90;;;;;;6344982;22;20006;-76
2023/09/10 11:24:43;;;;;;;8.40;4.82;;;28.20;99.90;;;;;;6346857;22;20019;-75
2023/09/10 11:27:27;;;;;;;15.70;12.00;;;28.20;99.90;;;;;;6307722;22;20027;-76
2023/09/10 11:30:14;;;;;;;8.30;6.43;;;28.20;99.90;;;;;;6337502;22;20510;-73
2023/09/10 11:32:42;;;;;;;6.65;4.78;;;28.10;99.90;;;;;;6337820;22;20467;-77
2023/09/10 11:35:27;;;;;;;7.82;5.00;;;28.30;99.90;;;;;;6346552;22;20045;-76
2023/09/10 11:37:56;;;;;;;8.73;5.20;;;28.50;99.90;;;;;;6311048;22;20404;-75
2023/09/10 11:40:25;;;;;;;6.38;5.18;;;28.50;99.90;;;;;;6342735;22;20459;-76
2023/09/10 11:42:53;;;;;;;6.88;5.43;;;28.40;99.90;;;;;;6346222;22;20015;-75
2023/09/10 11:45:21;;;;;;;14.65;5.50;;;28.40;99.90;;;;;;6309486;22;20080;-76
2023/09/10 11:47:50;;;;;;;10.77;5.05;;;28.40;99.90;;;;;;6338640;22;20074;-76
2023/09/10 11:50:23;;;;;;;7.72;5.72;;;28.60;99.90;;;;;;6324863;22;20019;-77
2023/09/10 11:52:53;;;;;;;9.88;5.47;;;28.50;99.90;;;;;;6363627;22;20587;-77
2023/09/10 11:55:21;;;;;;;8.10;6.50;;;28.50;99.90;;;;;;6329026;22;20026;-74
2023/09/10 11:57:50;;;;;;;9.63;5.85;;;28.40;99.90;;;;;;6346350;22;20499;-77
2023/09/10 12:00:18;;;;;;;9.55;5.43;;;28.40;99.90;;;;;;6306711;22;20072;-76
2023/09/10 12:02:47;;;;;;;11.90;6.07;;;28.40;99.90;;;;;;6337049;22;20025;-75
2023/09/10 12:05:15;;;;;;;6.53;4.60;;;28.50;99.90;;;;;;6341051;22;20043;-76
2023/09/10 12:07:44;;;;;;;7.70;5.20;;;28.60;99.90;;;;;;6342320;22;20090;-78
2023/09/10 12:10:13;;;;;;;9.80;8.05;;;28.50;99.90;;;;;;6306375;22;20019;-77
2023/09/10 12:12:43;;;;;;;13.10;11.70;;;28.50;99.90;;;;;;6345649;22;20014;-78
2023/09/10 12:15:11;;;;;;;7.63;5.00;;;28.60;99.90;;;;;;6334261;22;20347;-76
2023/09/10 12:17:39;;;;;;;7.30;5.72;;;28.60;99.90;;;;;;6336256;22;20102;-74
2023/09/10 12:20:08;;;;;;;10.13;5.60;;;28.80;99.90;;;;;;6305603;22;20035;-77
2023/09/10 12:22:36;;;;;;;9.57;6.13;;;28.80;99.90;;;;;;6364847;22;20459;-77
2023/09/10 12:25:04;;;;;;;8.15;7.25;;;28.90;99.90;;;;;;6329194;22;20022;-76
2023/09/10 12:27:32;;;;;;;6.05;5.03;;;28.90;99.90;;;;;;6360715;22;20033;-75
2023/09/10 12:30:00;;;;;;;8.40;5.05;;;28.90;99.90;;;;;;6338931;22;20540;-75
2023/09/10 12:32:28;;;;;;;6.72;4.60;;;28.80;99.90;;;;;;6338706;22;20140;-75
2023/09/10 12:34:56;;;;;;;6.22;5.20;;;28.80;99.90;;;;;;6341481;22;20702;-78
2023/09/10 12:37:23;;;;;;;8.75;7.18;;;28.80;99.90;;;;;;6307344;22;20023;-74
2023/09/10 12:39:53;;;;;;;11.93;6.10;;;28.80;99.90;;;;;;6308950;22;20302;-75
2023/09/10 12:42:21;;;;;;;7.78;4.82;;;29.00;99.90;;;;;;6308201;22;20027;-76
2023/09/10 12:44:52;;;;;;;6.25;5.07;;;29.00;99.90;;;;;;6336475;22;20019;-77
2023/09/10 12:47:26;;;;;;;6.75;4.93;;;29.00;99.90;;;;;;6307749;22;20049;-78
2023/09/10 12:49:53;;;;;;;7.13;4.90;;;29.00;99.90;;;;;;6341671;22;20093;-74
2023/09/10 12:52:21;;;;;;;7.72;6.45;;;28.90;99.90;;;;;;6345265;22;20122;-77
2023/09/10 12:54:49;;;;;;;9.63;6.20;;;28.90;99.90;;;;;;6308523;22;20035;-77
2023/09/10 12:57:17;;;;;;;11.27;5.78;;;28.90;99.90;;;;;;6307133;22;20062;-76
2023/09/10 12:59:45;;;;;;;9.15;5.78;;;29.00;99.90;;;;;;6307981;22;20025;-75
2023/09/10 13:02:14;;;;;;;7.82;6.80;;;29.00;99.90;;;;;;6308855;22;20085;-74
2023/09/10 13:04:41;;;;;;;9.55;7.30;;;28.90;99.90;;;;;;6342841;22;20019;-76
2023/09/10 13:07:12;;;;;;;8.18;5.72;;;29.00;99.90;;;;;;6343510;22;20034;-77
2023/09/10 13:09:39;;;;;;;6.05;5.18;;;29.00;99.90;;;;;;6346891;22;20037;-75
2023/09/10 13:12:07;;;;;;;10.80;5.25;;;28.90;99.90;;;;;;6307853;22;20367;-75
2023/09/10 13:14:39;;;;;;;11.65;6.90;;;28.90;99.90;;;;;;6307360;22;20019;-76
2023/09/10 13:17:07;;;;;;;9.98;7.10;;;29.00;99.90;;;;;;6340039;22;20080;-76
2023/09/10 13:19:36;;;;;;;10.25;5.38;;;29.00;99.90;;;;;;6308046;22;20385;-74
2023/09/10 13:22:05;;;;;;;11.48;9.60;;;29.10;99.90;;;;;;6345407;22;20038;-76
2023/09/10 13:24:39;;;;;;;7.65;5.32;;;29.10;99.90;;;;;;6310665;22;20026;-75
2023/09/10 13:27:19;;;;;;;6.20;4.60;;;29.10;99.90;;;;;;6307028;22;20029;-76
2023/09/10 13:29:47;;;;;;;7.78;5.80;;;29.10;99.90;;;;;;6344885;22;20443;-78
2023/09/10 13:32:14;;;;;;;13.07;9.57;;;29.00;99.90;;;;;;6315903;22;20022;-77
2023/09/10 13:34:46;;;;;;;11.18;8.77;;;29.10;99.90;;;;;;6315773;22;20606;-75
2023/09/10 13:37:15;;;;;;;11.25;6.90;;;29.00;99.90;;;;;;6355149;22;20029;-75
2023/09/10 13:43:38;;;;;;;7.13;4.75;;;29.10;99.90;;;;;;6348103;22;20018;-76
2023/09/10 13:46:06;;;;;;;7.85;5.32;;;29.20;99.90;;;;;;6280385;22;20029;-83
2023/09/10 13:48:33;;;;;;;7.72;5.50;;;29.30;99.90;;;;;;6326191;22;20046;-79
2023/09/10 13:51:02;;;;;;;8.05;4.97;;;29.30;99.90;;;;;;6291744;22;20081;-79
2023/09/10 13:53:30;;;;;;;8.75;5.50;;;29.30;99.90;;;;;;6327054;22;20027;-78
2023/09/10 13:55:57;;;;;;;7.85;5.25;;;29.30;99.90;;;;;;6301946;22;20199;-79
2023/09/10 13:58:24;;;;;;;10.88;5.25;;;29.00;99.90;;;;;;6327240;22;20022;-77
2023/09/10 14:00:52;;;;;;;10.48;5.93;;;29.00;99.90;;;;;;6367589;22;20058;-76
2023/09/10 14:03:26;;;;;;;11.73;5.22;;;29.10;99.90;;;;;;6355733;22;20015;-79
2023/09/10 14:05:53;;;;;;;11.13;5.20;;;29.10;99.90;;;;;;6357389;22;20029;-79
2023/09/10 14:08:22;;;;;;;6.80;5.18;;;29.10;99.90;;;;;;6362632;22;20088;-77
2023/09/10 14:10:52;;;;;;;6.57;5.22;;;29.00;99.90;;;;;;6365993;22;20034;-78
2023/09/10 14:13:19;;;;;;;7.80;4.97;;;29.00;99.90;;;;;;6331834;22;20038;-79
2023/09/10 14:15:47;;;;;;;9.88;6.68;;;29.00;99.90;;;;;;6324701;22;20076;-77
2023/09/10 14:18:15;;;;;;;7.25;4.57;;;29.10;99.90;;;;;;6319569;22;20027;-79
2023/09/10 14:20:43;;;;;;;6.18;4.30;;;29.10;99.90;;;;;;6355545;22;20019;-77
2023/09/10 14:23:10;;;;;;;6.90;4.95;;;29.00;99.90;;;;;;6329799;22;20023;-79
2023/09/10 14:25:39;;;;;;;7.95;4.57;;;29.00;99.90;;;;;;6329537;22;20022;-78
2023/09/10 14:28:07;;;;;;;6.35;4.30;;;28.80;99.90;;;;;;6356868;22;20041;-78
2023/09/10 14:30:35;;;;;;;6.05;4.15;;;28.70;99.90;;;;;;6345754;22;20010;-79
2023/09/10 14:33:05;;;;;;;5.38;4.45;;;28.80;99.90;;;;;;6307351;22;20022;-78
2023/09/10 14:35:33;;;;;;;6.70;4.80;;;28.80;99.90;;;;;;6307547;22;20045;-80
2023/09/10 14:38:00;;;;;;;10.88;5.63;;;28.80;99.90;;;;;;6340214;22;20043;-78
2023/09/10 14:40:29;;;;;;;7.57;4.45;;;28.80;99.90;;;;;;6308245;22;20034;-83
2023/09/10 14:43:09;;;;;;;6.97;5.18;;;28.80;99.90;;;;;;6308470;22;20019;-79